sensor_id;sensor_type;location;lat;lon;timestamp;temperature;humidity
30206;DHT22;17010;51.306;3.150;2023-08-21T00:02:15;17.10;99.90
30206;DHT22;17010;51.306;3.150;2023-08-21T00:04:42;17.10;99.90
30206;DHT22;17010;51.306;3.150;2023-08-21T00:07:09;17.10;99.90
30206;DHT22;17010;51.306;3.150;2023-08-21T00:09:37;17.10;99.90
30206;DHT22;17010;51.306;3.150;2023-08-21T00:12:04;17.10;99.90
30206;DHT22;17010;51.306;3.150;2023-08-21T00:14:30;17.10;99.90
30206;DHT22;17010;51.306;3.150;2023-08-21T00:16:57;17.10;99.90
30206;DHT22;17010;51.306;3.150;2023-08-21T00:19:24;17.10;99.90
30206;DHT22;17010;51.306;3.150;2023-08-21T00:21:50;17.10;99.90
30206;DHT22;17010;51.306;3.150;2023-08-21T00:24:17;17.00;99.90
30206;DHT22;17010;51.306;3.150;2023-08-21T00:26:44;17.00;99.90
30206;DHT22;17010;51.306;3.150;2023-08-21T00:29:10;17.00;99.90
30206;DHT22;17010;51.306;3.150;2023-08-21T00:31:37;17.00;99.90
30206;DHT22;17010;51.306;3.150;2023-08-21T00:34:03;17.00;99.90
30206;DHT22;17010;51.306;3.150;2023-08-21T00:36:30;16.90;99.90
30206;DHT22;17010;51.306;3.150;2023-08-21T00:38:56;16.90;99.90
30206;DHT22;17010;51.306;3.150;2023-08-21T00:41:23;16.90;99.90
30206;DHT22;17010;51.306;3.150;2023-08-21T00:43:50;16.90;99.90
30206;DHT22;17010;51.306;3.150;2023-08-21T00:46:16;16.80;99.90
30206;DHT22;17010;51.306;3.150;2023-08-21T00:48:43;16.80;99.90
30206;DHT22;17010;51.306;3.150;2023-08-21T00:51:11;16.80;99.90
30206;DHT22;17010;51.306;3.150;2023-08-21T00:53:38;16.80;99.90
30206;DHT22;17010;51.306;3.150;2023-08-21T00:56:05;16.80;99.90
30206;DHT22;17010;51.306;3.150;2023-08-21T00:58:31;16.80;99.90
30206;DHT22;17010;51.306;3.150;2023-08-21T01:00:58;16.80;99.90
30206;DHT22;17010;51.306;3.150;2023-08-21T01:03:25;16.80;99.90
30206;DHT22;17010;51.306;3.150;2023-08-21T01:05:52;16.70;99.90
30206;DHT22;17010;51.306;3.150;2023-08-21T01:11:47;16.70;99.90
30206;DHT22;17010;51.306;3.150;2023-08-21T01:16:48;16.70;99.90
30206;DHT22;17010;51.306;3.150;2023-08-21T01:19:36;16.70;99.90
30206;DHT22;17010;51.306;3.150;2023-08-21T01:22:03;16.60;99.90
30206;DHT22;17010;51.306;3.150;2023-08-21T01:24:29;16.60;99.90
30206;DHT22;17010;51.306;3.150;2023-08-21T01:26:55;16.60;99.90
30206;DHT22;17010;51.306;3.150;2023-08-21T01:29:22;16.50;99.90
30206;DHT22;17010;51.306;3.150;2023-08-21T01:31:52;16.50;99.90
30206;DHT22;17010;51.306;3.150;2023-08-21T01:34:22;16.50;99.90
30206;DHT22;17010;51.306;3.150;2023-08-21T01:36:49;16.50;99.90
30206;DHT22;17010;51.306;3.150;2023-08-21T01:39:15;16.50;99.90
30206;DHT22;17010;51.306;3.150;2023-08-21T01:41:42;16.40;99.90
30206;DHT22;17010;51.306;3.150;2023-08-21T01:44:09;16.40;99.90
30206;DHT22;17010;51.306;3.150;2023-08-21T01:46:35;16.40;99.90
30206;DHT22;17010;51.306;3.150;2023-08-21T01:49:01;16.40;99.90
30206;DHT22;17010;51.306;3.150;2023-08-21T01:51:28;16.40;99.90
30206;DHT22;17010;51.306;3.150;2023-08-21T01:53:55;16.30;99.90
30206;DHT22;17010;51.306;3.150;2023-08-21T01:56:21;16.30;99.90
30206;DHT22;17010;51.306;3.150;2023-08-21T01:58:49;16.30;99.90
30206;DHT22;17010;51.306;3.150;2023-08-21T02:01:15;16.20;99.90
30206;DHT22;17010;51.306;3.150;2023-08-21T02:03:42;16.20;99.90
30206;DHT22;17010;51.306;3.150;2023-08-21T02:06:09;16.20;99.90
30206;DHT22;17010;51.306;3.150;2023-08-21T02:08:36;16.20;99.90
30206;DHT22;17010;51.306;3.150;2023-08-21T02:11:03;16.20;99.90
30206;DHT22;17010;51.306;3.150;2023-08-21T02:13:29;16.20;99.90
30206;DHT22;17010;51.306;3.150;2023-08-21T02:15:55;16.20;99.90
30206;DHT22;17010;51.306;3.150;2023-08-21T02:18:22;16.20;99.90
30206;DHT22;17010;51.306;3.150;2023-08-21T02:20:48;16.10;99.90
30206;DHT22;17010;51.306;3.150;2023-08-21T02:23:15;16.10;99.90
30206;DHT22;17010;51.306;3.150;2023-08-21T02:25:41;16.10;99.90
30206;DHT22;17010;51.306;3.150;2023-08-21T02:28:08;16.00;99.90
30206;DHT22;17010;51.306;3.150;2023-08-21T02:30:34;16.00;99.90
30206;DHT22;17010;51.306;3.150;2023-08-21T02:33:00;16.00;99.90
30206;DHT22;17010;51.306;3.150;2023-08-21T02:35:26;16.00;99.90
30206;DHT22;17010;51.306;3.150;2023-08-21T02:37:53;16.00;99.90
30206;DHT22;17010;51.306;3.150;2023-08-21T02:40:19;15.90;99.90
30206;DHT22;17010;51.306;3.150;2023-08-21T02:42:46;15.90;99.90
30206;DHT22;17010;51.306;3.150;2023-08-21T02:45:12;15.80;99.90
30206;DHT22;17010;51.306;3.150;2023-08-21T02:47:40;15.80;99.90
30206;DHT22;17010;51.306;3.150;2023-08-21T02:50:08;15.80;99.90
30206;DHT22;17010;51.306;3.150;2023-08-21T02:52:35;15.80;99.90
30206;DHT22;17010;51.306;3.150;2023-08-21T02:55:02;15.80;99.90
30206;DHT22;17010;51.306;3.150;2023-08-21T02:57:29;15.80;99.90
30206;DHT22;17010;51.306;3.150;2023-08-21T02:59:56;15.70;99.90
30206;DHT22;17010;51.306;3.150;2023-08-21T03:02:23;15.70;99.90
30206;DHT22;17010;51.306;3.150;2023-08-21T03:04:49;15.70;99.90
30206;DHT22;17010;51.306;3.150;2023-08-21T03:07:16;15.70;99.90
30206;DHT22;17010;51.306;3.150;2023-08-21T03:09:45;15.70;99.90
30206;DHT22;17010;51.306;3.150;2023-08-21T03:12:13;15.60;99.90
30206;DHT22;17010;51.306;3.150;2023-08-21T03:14:40;15.60;99.90
30206;DHT22;17010;51.306;3.150;2023-08-21T03:17:07;15.50;99.90
30206;DHT22;17010;51.306;3.150;2023-08-21T03:19:33;15.50;99.90
30206;DHT22;17010;51.306;3.150;2023-08-21T03:21:59;15.50;99.90
30206;DHT22;17010;51.306;3.150;2023-08-21T03:24:25;15.50;99.90
30206;DHT22;17010;51.306;3.150;2023-08-21T03:26:53;15.40;99.90
30206;DHT22;17010;51.306;3.150;2023-08-21T03:29:19;15.40;99.90
30206;DHT22;17010;51.306;3.150;2023-08-21T03:31:49;15.40;99.90
30206;DHT22;17010;51.306;3.150;2023-08-21T03:34:16;15.40;99.90
30206;DHT22;17010;51.306;3.150;2023-08-21T03:36:43;15.40;99.90
30206;DHT22;17010;51.306;3.150;2023-08-21T03:39:10;15.30;99.90
30206;DHT22;17010;51.306;3.150;2023-08-21T03:41:37;15.30;99.90
30206;DHT22;17010;51.306;3.150;2023-08-21T03:44:05;15.30;99.90
30206;DHT22;17010;51.306;3.150;2023-08-21T03:46:32;15.30;99.90
30206;DHT22;17010;51.306;3.150;2023-08-21T03:48:59;15.30;99.90
30206;DHT22;17010;51.306;3.150;2023-08-21T03:51:26;15.30;99.90
30206;DHT22;17010;51.306;3.150;2023-08-21T03:53:53;15.30;99.90
30206;DHT22;17010;51.306;3.150;2023-08-21T03:56:19;15.30;99.90
30206;DHT22;17010;51.306;3.150;2023-08-21T03:58:46;15.30;99.90
30206;DHT22;17010;51.306;3.150;2023-08-21T04:01:14;15.20;99.90
30206;DHT22;17010;51.306;3.150;2023-08-21T04:03:40;15.20;99.90
30206;DHT22;17010;51.306;3.150;2023-08-21T04:06:08;15.20;99.90
30206;DHT22;17010;51.306;3.150;2023-08-21T04:08:35;15.10;99.90
30206;DHT22;17010;51.306;3.150;2023-08-21T04:11:01;15.20;99.90
30206;DHT22;17010;51.306;3.150;2023-08-21T04:13:28;15.20;99.90
30206;DHT22;17010;51.306;3.150;2023-08-21T04:15:54;15.10;99.90
30206;DHT22;17010;51.306;3.150;2023-08-21T04:18:22;15.10;99.90
30206;DHT22;17010;51.306;3.150;2023-08-21T04:20:49;15.10;99.90
30206;DHT22;17010;51.306;3.150;2023-08-21T04:23:15;15.10;99.90
30206;DHT22;17010;51.306;3.150;2023-08-21T04:25:42;15.10;99.90
30206;DHT22;17010;51.306;3.150;2023-08-21T04:28:09;15.10;99.90
30206;DHT22;17010;51.306;3.150;2023-08-21T04:30:36;15.10;99.90
30206;DHT22;17010;51.306;3.150;2023-08-21T04:33:04;15.00;99.90
30206;DHT22;17010;51.306;3.150;2023-08-21T04:35:36;15.00;99.90
30206;DHT22;17010;51.306;3.150;2023-08-21T04:38:03;15.00;99.90
30206;DHT22;17010;51.306;3.150;2023-08-21T04:40:29;14.90;99.90
30206;DHT22;17010;51.306;3.150;2023-08-21T04:42:56;14.90;99.90
30206;DHT22;17010;51.306;3.150;2023-08-21T04:45:22;14.90;99.90
30206;DHT22;17010;51.306;3.150;2023-08-21T04:47:48;14.90;99.90
30206;DHT22;17010;51.306;3.150;2023-08-21T04:50:14;14.90;99.90
30206;DHT22;17010;51.306;3.150;2023-08-21T04:52:42;14.90;99.90
30206;DHT22;17010;51.306;3.150;2023-08-21T04:55:09;14.90;99.90
30206;DHT22;17010;51.306;3.150;2023-08-21T04:57:36;14.90;99.90
30206;DHT22;17010;51.306;3.150;2023-08-21T05:00:03;14.90;99.90
30206;DHT22;17010;51.306;3.150;2023-08-21T05:02:30;14.90;99.90
30206;DHT22;17010;51.306;3.150;2023-08-21T05:04:57;14.90;99.90
30206;DHT22;17010;51.306;3.150;2023-08-21T05:07:24;14.90;99.90
30206;DHT22;17010;51.306;3.150;2023-08-21T05:09:50;15.00;99.90
30206;DHT22;17010;51.306;3.150;2023-08-21T05:12:17;15.10;99.90
30206;DHT22;17010;51.306;3.150;2023-08-21T05:14:44;15.40;99.90
30206;DHT22;17010;51.306;3.150;2023-08-21T05:17:10;15.60;99.90
30206;DHT22;17010;51.306;3.150;2023-08-21T05:19:37;15.70;99.90
30206;DHT22;17010;51.306;3.150;2023-08-21T05:22:04;15.70;99.90
30206;DHT22;17010;51.306;3.150;2023-08-21T05:24:30;15.70;99.90
30206;DHT22;17010;51.306;3.150;2023-08-21T05:26:57;15.70;99.90
30206;DHT22;17010;51.306;3.150;2023-08-21T05:29:24;15.80;99.90
30206;DHT22;17010;51.306;3.150;2023-08-21T05:31:50;15.80;99.90
30206;DHT22;17010;51.306;3.150;2023-08-21T05:34:16;16.20;99.90
30206;DHT22;17010;51.306;3.150;2023-08-21T05:36:42;17.00;99.90
30206;DHT22;17010;51.306;3.150;2023-08-21T05:39:09;17.90;99.90
30206;DHT22;17010;51.306;3.150;2023-08-21T05:41:36;18.80;99.90
30206;DHT22;17010;51.306;3.150;2023-08-21T05:44:03;19.70;99.90
30206;DHT22;17010;51.306;3.150;2023-08-21T05:46:29;20.50;99.90
30206;DHT22;17010;51.306;3.150;2023-08-21T05:48:57;21.30;99.90
30206;DHT22;17010;51.306;3.150;2023-08-21T05:51:23;22.00;99.90
30206;DHT22;17010;51.306;3.150;2023-08-21T05:53:51;22.40;99.90
30206;DHT22;17010;51.306;3.150;2023-08-21T05:56:17;22.90;99.90
30206;DHT22;17010;51.306;3.150;2023-08-21T05:58:44;23.30;99.90
30206;DHT22;17010;51.306;3.150;2023-08-21T06:01:11;23.60;99.90
30206;DHT22;17010;51.306;3.150;2023-08-21T06:03:37;23.90;99.90
30206;DHT22;17010;51.306;3.150;2023-08-21T06:06:04;24.20;99.90
30206;DHT22;17010;51.306;3.150;2023-08-21T06:08:31;24.60;99.90
30206;DHT22;17010;51.306;3.150;2023-08-21T06:10:58;24.80;99.90
30206;DHT22;17010;51.306;3.150;2023-08-21T06:13:25;24.90;99.90
30206;DHT22;17010;51.306;3.150;2023-08-21T06:15:51;25.00;99.90
30206;DHT22;17010;51.306;3.150;2023-08-21T06:18:18;24.90;99.90
30206;DHT22;17010;51.306;3.150;2023-08-21T06:20:44;24.70;99.90
30206;DHT22;17010;51.306;3.150;2023-08-21T06:23:11;24.60;99.90
30206;DHT22;17010;51.306;3.150;2023-08-21T06:25:37;24.70;99.90
30206;DHT22;17010;51.306;3.150;2023-08-21T06:28:04;24.80;99.90
30206;DHT22;17010;51.306;3.150;2023-08-21T06:30:31;25.10;99.90
30206;DHT22;17010;51.306;3.150;2023-08-21T06:32:57;25.50;99.90
30206;DHT22;17010;51.306;3.150;2023-08-21T06:35:23;25.80;99.90
30206;DHT22;17010;51.306;3.150;2023-08-21T06:37:50;26.10;99.90
30206;DHT22;17010;51.306;3.150;2023-08-21T06:40:17;26.20;99.90
30206;DHT22;17010;51.306;3.150;2023-08-21T06:42:43;26.00;99.90
30206;DHT22;17010;51.306;3.150;2023-08-21T06:45:10;25.70;99.90
30206;DHT22;17010;51.306;3.150;2023-08-21T06:47:36;25.50;99.90
30206;DHT22;17010;51.306;3.150;2023-08-21T06:50:03;25.60;99.90
30206;DHT22;17010;51.306;3.150;2023-08-21T06:52:30;25.80;99.90
30206;DHT22;17010;51.306;3.150;2023-08-21T06:54:56;25.80;99.90
30206;DHT22;17010;51.306;3.150;2023-08-21T06:57:23;25.70;99.90
30206;DHT22;17010;51.306;3.150;2023-08-21T06:59:49;25.50;99.90
30206;DHT22;17010;51.306;3.150;2023-08-21T07:02:15;25.30;99.90
30206;DHT22;17010;51.306;3.150;2023-08-21T07:04:42;25.10;99.90
30206;DHT22;17010;51.306;3.150;2023-08-21T07:07:08;25.00;99.90
30206;DHT22;17010;51.306;3.150;2023-08-21T07:09:35;24.80;99.90
30206;DHT22;17010;51.306;3.150;2023-08-21T07:12:01;24.60;99.90
30206;DHT22;17010;51.306;3.150;2023-08-21T07:14:27;24.40;99.90
30206;DHT22;17010;51.306;3.150;2023-08-21T07:16:54;24.20;99.90
30206;DHT22;17010;51.306;3.150;2023-08-21T07:19:20;24.10;99.90
30206;DHT22;17010;51.306;3.150;2023-08-21T07:21:46;24.30;99.90
30206;DHT22;17010;51.306;3.150;2023-08-21T07:24:13;24.40;99.90
30206;DHT22;17010;51.306;3.150;2023-08-21T07:26:39;24.40;99.90
30206;DHT22;17010;51.306;3.150;2023-08-21T07:29:05;24.40;99.90
30206;DHT22;17010;51.306;3.150;2023-08-21T07:31:32;24.30;99.90
30206;DHT22;17010;51.306;3.150;2023-08-21T07:33:58;24.10;99.90
30206;DHT22;17010;51.306;3.150;2023-08-21T07:36:24;23.90;99.90
30206;DHT22;17010;51.306;3.150;2023-08-21T07:38:51;23.80;99.90
30206;DHT22;17010;51.306;3.150;2023-08-21T07:41:17;23.50;99.90
30206;DHT22;17010;51.306;3.150;2023-08-21T07:43:44;23.40;99.90
30206;DHT22;17010;51.306;3.150;2023-08-21T07:46:11;23.30;99.90
30206;DHT22;17010;51.306;3.150;2023-08-21T07:48:40;23.20;99.90
30206;DHT22;17010;51.306;3.150;2023-08-21T07:51:06;23.20;99.90
30206;DHT22;17010;51.306;3.150;2023-08-21T07:53:33;23.30;99.90
30206;DHT22;17010;51.306;3.150;2023-08-21T07:56:01;23.40;99.90
30206;DHT22;17010;51.306;3.150;2023-08-21T07:58:27;23.20;99.90
30206;DHT22;17010;51.306;3.150;2023-08-21T08:00:53;23.40;99.90
30206;DHT22;17010;51.306;3.150;2023-08-21T08:03:21;23.60;99.90
30206;DHT22;17010;51.306;3.150;2023-08-21T08:05:47;23.50;99.90
30206;DHT22;17010;51.306;3.150;2023-08-21T08:08:13;23.80;99.90
30206;DHT22;17010;51.306;3.150;2023-08-21T08:10:40;24.20;99.90
30206;DHT22;17010;51.306;3.150;2023-08-21T08:13:07;24.50;99.90
30206;DHT22;17010;51.306;3.150;2023-08-21T08:15:33;25.00;99.90
30206;DHT22;17010;51.306;3.150;2023-08-21T08:18:04;25.40;99.90
30206;DHT22;17010;51.306;3.150;2023-08-21T08:20:31;25.80;99.90
30206;DHT22;17010;51.306;3.150;2023-08-21T08:22:57;26.60;99.90
30206;DHT22;17010;51.306;3.150;2023-08-21T08:25:24;27.10;99.90
30206;DHT22;17010;51.306;3.150;2023-08-21T08:27:51;27.40;99.90
30206;DHT22;17010;51.306;3.150;2023-08-21T08:30:18;27.40;99.90
30206;DHT22;17010;51.306;3.150;2023-08-21T08:32:44;27.20;99.90
30206;DHT22;17010;51.306;3.150;2023-08-21T08:35:13;27.00;99.90
30206;DHT22;17010;51.306;3.150;2023-08-21T11:25:39;30.90;99.90
30206;DHT22;17010;51.306;3.150;2023-08-21T11:28:06;30.60;99.90
30206;DHT22;17010;51.306;3.150;2023-08-21T11:30:33;30.50;99.90
30206;DHT22;17010;51.306;3.150;2023-08-21T11:33:10;30.50;99.90
30206;DHT22;17010;51.306;3.150;2023-08-21T11:35:38;30.40;99.90
30206;DHT22;17010;51.306;3.150;2023-08-21T11:38:04;30.10;99.90
30206;DHT22;17010;51.306;3.150;2023-08-21T11:40:34;30.40;99.90
30206;DHT22;17010;51.306;3.150;2023-08-21T11:43:03;30.90;99.90
30206;DHT22;17010;51.306;3.150;2023-08-21T11:45:31;30.10;99.90
30206;DHT22;17010;51.306;3.150;2023-08-21T11:47:57;30.00;99.90
30206;DHT22;17010;51.306;3.150;2023-08-21T11:50:23;29.80;99.90
30206;DHT22;17010;51.306;3.150;2023-08-21T11:52:52;29.40;99.90
30206;DHT22;17010;51.306;3.150;2023-08-21T11:55:18;29.40;99.90
30206;DHT22;17010;51.306;3.150;2023-08-21T11:57:51;29.50;99.90
30206;DHT22;17010;51.306;3.150;2023-08-21T12:00:19;29.50;99.90
30206;DHT22;17010;51.306;3.150;2023-08-21T12:02:58;29.80;99.90
30206;DHT22;17010;51.306;3.150;2023-08-21T12:05:25;29.80;99.90
30206;DHT22;17010;51.306;3.150;2023-08-21T12:07:52;29.80;99.90
30206;DHT22;17010;51.306;3.150;2023-08-21T12:10:28;29.70;99.90
30206;DHT22;17010;51.306;3.150;2023-08-21T12:12:55;29.90;99.90
30206;DHT22;17010;51.306;3.150;2023-08-21T12:15:22;29.70;99.90
30206;DHT22;17010;51.306;3.150;2023-08-21T12:17:48;29.50;99.90
30206;DHT22;17010;51.306;3.150;2023-08-21T12:20:14;29.80;99.90
30206;DHT22;17010;51.306;3.150;2023-08-21T12:22:40;29.90;99.90
30206;DHT22;17010;51.306;3.150;2023-08-21T12:25:09;30.00;99.90
30206;DHT22;17010;51.306;3.150;2023-08-21T12:27:36;29.60;99.90
30206;DHT22;17010;51.306;3.150;2023-08-21T12:30:04;29.50;99.90
30206;DHT22;17010;51.306;3.150;2023-08-21T12:32:31;29.50;99.90
30206;DHT22;17010;51.306;3.150;2023-08-21T12:34:58;29.50;99.90
30206;DHT22;17010;51.306;3.150;2023-08-21T12:37:24;30.10;99.90
30206;DHT22;17010;51.306;3.150;2023-08-21T12:39:51;30.10;99.90
30206;DHT22;17010;51.306;3.150;2023-08-21T12:42:17;29.80;99.90
30206;DHT22;17010;51.306;3.150;2023-08-21T12:44:44;29.50;99.90
30206;DHT22;17010;51.306;3.150;2023-08-21T12:47:11;29.60;99.90
30206;DHT22;17010;51.306;3.150;2023-08-21T12:49:37;29.50;99.90
30206;DHT22;17010;51.306;3.150;2023-08-21T12:52:04;29.40;99.90
30206;DHT22;17010;51.306;3.150;2023-08-21T12:54:32;29.80;99.90
30206;DHT22;17010;51.306;3.150;2023-08-21T12:56:59;29.90;99.90
30206;DHT22;17010;51.306;3.150;2023-08-21T12:59:25;29.90;99.90
30206;DHT22;17010;51.306;3.150;2023-08-21T13:01:51;30.10;99.90
30206;DHT22;17010;51.306;3.150;2023-08-21T13:04:18;30.60;99.90
30206;DHT22;17010;51.306;3.150;2023-08-21T13:06:44;30.40;99.90
30206;DHT22;17010;51.306;3.150;2023-08-21T13:09:10;30.20;99.90
30206;DHT22;17010;51.306;3.150;2023-08-21T13:11:36;30.10;99.90
30206;DHT22;17010;51.306;3.150;2023-08-21T13:14:02;29.90;99.90
30206;DHT22;17010;51.306;3.150;2023-08-21T13:16:29;29.70;99.90
30206;DHT22;17010;51.306;3.150;2023-08-21T13:18:55;29.50;99.90
30206;DHT22;17010;51.306;3.150;2023-08-21T13:21:21;29.70;99.90
30206;DHT22;17010;51.306;3.150;2023-08-21T13:23:48;29.90;99.90
30206;DHT22;17010;51.306;3.150;2023-08-21T13:26:14;30.20;99.90
30206;DHT22;17010;51.306;3.150;2023-08-21T13:28:40;30.40;99.90
30206;DHT22;17010;51.306;3.150;2023-08-21T13:31:07;30.20;99.90
30206;DHT22;17010;51.306;3.150;2023-08-21T13:33:47;30.20;99.90
30206;DHT22;17010;51.306;3.150;2023-08-21T13:36:15;30.00;99.90
30206;DHT22;17010;51.306;3.150;2023-08-21T13:38:41;30.00;99.90
30206;DHT22;17010;51.306;3.150;2023-08-21T13:41:07;29.60;99.90
30206;DHT22;17010;51.306;3.150;2023-08-21T13:43:34;29.00;99.90
30206;DHT22;17010;51.306;3.150;2023-08-21T13:46:02;28.40;99.90
30206;DHT22;17010;51.306;3.150;2023-08-21T13:48:31;28.20;99.90
30206;DHT22;17010;51.306;3.150;2023-08-21T13:50:57;28.00;99.90
30206;DHT22;17010;51.306;3.150;2023-08-21T13:53:24;28.00;99.90
30206;DHT22;17010;51.306;3.150;2023-08-21T13:55:50;28.10;99.90
30206;DHT22;17010;51.306;3.150;2023-08-21T13:58:17;28.20;99.90
30206;DHT22;17010;51.306;3.150;2023-08-21T14:00:43;28.10;99.90
30206;DHT22;17010;51.306;3.150;2023-08-21T14:03:12;28.00;99.90
30206;DHT22;17010;51.306;3.150;2023-08-21T14:05:40;27.80;99.90
30206;DHT22;17010;51.306;3.150;2023-08-21T14:08:06;27.40;99.90
30206;DHT22;17010;51.306;3.150;2023-08-21T14:10:32;26.80;99.90
30206;DHT22;17010;51.306;3.150;2023-08-21T14:12:58;26.30;99.90
30206;DHT22;17010;51.306;3.150;2023-08-21T14:15:24;26.30;99.90
30206;DHT22;17010;51.306;3.150;2023-08-21T14:17:51;26.20;99.90
30206;DHT22;17010;51.306;3.150;2023-08-21T14:20:17;26.00;99.90
30206;DHT22;17010;51.306;3.150;2023-08-21T14:22:44;25.40;99.90
30206;DHT22;17010;51.306;3.150;2023-08-21T14:25:10;24.90;99.90
30206;DHT22;17010;51.306;3.150;2023-08-21T14:27:36;24.70;99.90
30206;DHT22;17010;51.306;3.150;2023-08-21T14:30:04;24.60;99.90
30206;DHT22;17010;51.306;3.150;2023-08-21T14:32:30;24.60;99.90
30206;DHT22;17010;51.306;3.150;2023-08-21T14:34:56;24.50;99.90
30206;DHT22;17010;51.306;3.150;2023-08-21T14:37:23;24.20;99.90
30206;DHT22;17010;51.306;3.150;2023-08-21T14:39:51;24.10;99.90
30206;DHT22;17010;51.306;3.150;2023-08-21T14:42:17;24.10;99.90
30206;DHT22;17010;51.306;3.150;2023-08-21T14:44:43;24.10;99.90
30206;DHT22;17010;51.306;3.150;2023-08-21T14:47:10;24.40;99.90
30206;DHT22;17010;51.306;3.150;2023-08-21T14:49:36;24.60;99.90
30206;DHT22;17010;51.306;3.150;2023-08-21T14:52:03;24.40;99.90
30206;DHT22;17010;51.306;3.150;2023-08-21T14:54:29;24.50;99.90
30206;DHT22;17010;51.306;3.150;2023-08-21T14:56:55;24.40;99.90
30206;DHT22;17010;51.306;3.150;2023-08-21T14:59:22;24.20;99.90
30206;DHT22;17010;51.306;3.150;2023-08-21T15:01:49;23.90;99.90
30206;DHT22;17010;51.306;3.150;2023-08-21T15:04:15;23.80;99.90
30206;DHT22;17010;51.306;3.150;2023-08-21T15:06:41;23.80;99.90
30206;DHT22;17010;51.306;3.150;2023-08-21T15:09:09;23.50;99.90
30206;DHT22;17010;51.306;3.150;2023-08-21T15:11:35;23.60;99.90
30206;DHT22;17010;51.306;3.150;2023-08-21T15:14:10;23.40;99.90
30206;DHT22;17010;51.306;3.150;2023-08-21T15:16:37;23.40;99.90
30206;DHT22;17010;51.306;3.150;2023-08-21T15:19:04;23.10;99.90
30206;DHT22;17010;51.306;3.150;2023-08-21T15:21:30;22.80;99.90
30206;DHT22;17010;51.306;3.150;2023-08-21T15:23:56;22.80;99.90
30206;DHT22;17010;51.306;3.150;2023-08-21T15:26:22;22.90;99.90
30206;DHT22;17010;51.306;3.150;2023-08-21T15:28:48;22.70;99.90
30206;DHT22;17010;51.306;3.150;2023-08-21T15:31:14;22.80;99.90
30206;DHT22;17010;51.306;3.150;2023-08-21T15:33:41;22.70;99.90
30206;DHT22;17010;51.306;3.150;2023-08-21T15:36:07;22.70;99.90
30206;DHT22;17010;51.306;3.150;2023-08-21T15:38:34;22.70;99.90
30206;DHT22;17010;51.306;3.150;2023-08-21T15:41:00;22.70;99.90
30206;DHT22;17010;51.306;3.150;2023-08-21T15:43:26;22.50;99.90
30206;DHT22;17010;51.306;3.150;2023-08-21T15:45:54;22.50;99.90
30206;DHT22;17010;51.306;3.150;2023-08-21T15:48:20;22.60;99.90
30206;DHT22;17010;51.306;3.150;2023-08-21T15:50:46;22.50;99.90
30206;DHT22;17010;51.306;3.150;2023-08-21T15:53:13;22.40;99.90
30206;DHT22;17010;51.306;3.150;2023-08-21T15:55:40;22.50;99.90
30206;DHT22;17010;51.306;3.150;2023-08-21T15:58:07;22.40;99.90
30206;DHT22;17010;51.306;3.150;2023-08-21T16:00:34;22.20;99.90
30206;DHT22;17010;51.306;3.150;2023-08-21T16:03:00;22.00;99.90
30206;DHT22;17010;51.306;3.150;2023-08-21T16:05:27;21.90;99.90
30206;DHT22;17010;51.306;3.150;2023-08-21T16:07:53;21.80;99.90
30206;DHT22;17010;51.306;3.150;2023-08-21T16:10:21;21.90;99.90
30206;DHT22;17010;51.306;3.150;2023-08-21T16:12:47;22.10;99.90
30206;DHT22;17010;51.306;3.150;2023-08-21T16:15:14;22.10;99.90
30206;DHT22;17010;51.306;3.150;2023-08-21T16:17:40;22.10;99.90
30206;DHT22;17010;51.306;3.150;2023-08-21T16:20:08;22.20;99.90
30206;DHT22;17010;51.306;3.150;2023-08-21T16:22:34;22.20;99.90
30206;DHT22;17010;51.306;3.150;2023-08-21T16:25:02;22.30;99.90
30206;DHT22;17010;51.306;3.150;2023-08-21T16:27:29;22.30;99.90
30206;DHT22;17010;51.306;3.150;2023-08-21T16:29:55;22.30;99.90
30206;DHT22;17010;51.306;3.150;2023-08-21T16:32:22;22.30;99.90
30206;DHT22;17010;51.306;3.150;2023-08-21T16:34:49;22.40;99.90
30206;DHT22;17010;51.306;3.150;2023-08-21T16:37:16;22.40;99.90
30206;DHT22;17010;51.306;3.150;2023-08-21T16:39:43;22.50;99.90
30206;DHT22;17010;51.306;3.150;2023-08-21T16:42:10;22.50;99.90
30206;DHT22;17010;51.306;3.150;2023-08-21T16:44:37;22.40;99.90
30206;DHT22;17010;51.306;3.150;2023-08-21T16:47:03;22.40;99.90
30206;DHT22;17010;51.306;3.150;2023-08-21T16:49:31;22.50;99.90
30206;DHT22;17010;51.306;3.150;2023-08-21T16:51:58;22.40;99.90
30206;DHT22;17010;51.306;3.150;2023-08-21T16:54:25;22.50;99.90
30206;DHT22;17010;51.306;3.150;2023-08-21T16:56:52;22.30;99.90
30206;DHT22;17010;51.306;3.150;2023-08-21T16:59:19;22.20;99.90
30206;DHT22;17010;51.306;3.150;2023-08-21T17:01:46;22.00;99.90
30206;DHT22;17010;51.306;3.150;2023-08-21T17:04:12;22.00;99.90
30206;DHT22;17010;51.306;3.150;2023-08-21T17:06:38;22.00;99.90
30206;DHT22;17010;51.306;3.150;2023-08-21T17:09:06;21.90;99.90
30206;DHT22;17010;51.306;3.150;2023-08-21T17:11:33;21.80;99.90
30206;DHT22;17010;51.306;3.150;2023-08-21T17:14:00;21.70;99.90
30206;DHT22;17010;51.306;3.150;2023-08-21T17:16:27;21.80;99.90
30206;DHT22;17010;51.306;3.150;2023-08-21T17:18:53;21.80;99.90
30206;DHT22;17010;51.306;3.150;2023-08-21T17:21:19;21.80;99.90
30206;DHT22;17010;51.306;3.150;2023-08-21T17:23:46;21.80;99.90
30206;DHT22;17010;51.306;3.150;2023-08-21T17:26:13;21.80;99.90
30206;DHT22;17010;51.306;3.150;2023-08-21T17:28:40;21.90;99.90
30206;DHT22;17010;51.306;3.150;2023-08-21T17:31:07;21.90;99.90
30206;DHT22;17010;51.306;3.150;2023-08-21T17:33:34;21.90;99.90
30206;DHT22;17010;51.306;3.150;2023-08-21T17:36:03;22.00;99.90
30206;DHT22;17010;51.306;3.150;2023-08-21T17:38:30;22.00;99.90
30206;DHT22;17010;51.306;3.150;2023-08-21T17:40:57;22.10;99.90
30206;DHT22;17010;51.306;3.150;2023-08-21T17:43:24;22.00;99.90
30206;DHT22;17010;51.306;3.150;2023-08-21T17:45:51;21.90;99.90
30206;DHT22;17010;51.306;3.150;2023-08-21T17:48:18;21.90;99.90
30206;DHT22;17010;51.306;3.150;2023-08-21T17:50:45;21.90;99.90
30206;DHT22;17010;51.306;3.150;2023-08-21T17:53:12;21.80;99.90
30206;DHT22;17010;51.306;3.150;2023-08-21T17:55:39;21.70;99.90
30206;DHT22;17010;51.306;3.150;2023-08-21T17:58:06;21.70;99.90
30206;DHT22;17010;51.306;3.150;2023-08-21T18:00:33;21.70;99.90
30206;DHT22;17010;51.306;3.150;2023-08-21T18:02:59;21.60;99.90
30206;DHT22;17010;51.306;3.150;2023-08-21T18:05:27;21.60;99.90
30206;DHT22;17010;51.306;3.150;2023-08-21T18:07:54;21.50;99.90
30206;DHT22;17010;51.306;3.150;2023-08-21T18:10:20;21.50;99.90
30206;DHT22;17010;51.306;3.150;2023-08-21T18:12:47;21.30;99.90
30206;DHT22;17010;51.306;3.150;2023-08-21T18:15:13;21.30;99.90
30206;DHT22;17010;51.306;3.150;2023-08-21T18:17:39;21.30;99.90
30206;DHT22;17010;51.306;3.150;2023-08-21T18:20:07;21.20;99.90
30206;DHT22;17010;51.306;3.150;2023-08-21T18:22:34;21.20;99.90